地図

経路データ

SID SEASON NUMBER BASIN SUBBASIN NAME ISO_TIME NATURE LAT LON WMO_WIND WMO_PRES WMO_AGENCY TRACK_TYPE DIST2LAND LANDFALL IFLAG USA_AGENCY USA_ATCF_ID USA_LAT USA_LON USA_RECORD USA_STATUS USA_WIND USA_PRES USA_SSHS USA_R34_NE USA_R34_SE USA_R34_SW USA_R34_NW USA_R50_NE USA_R50_SE USA_R50_SW USA_R50_NW USA_R64_NE USA_R64_SE USA_R64_SW USA_R64_NW USA_POCI USA_ROCI USA_RMW USA_EYE TOKYO_LAT TOKYO_LON TOKYO_GRADE TOKYO_WIND TOKYO_PRES TOKYO_R50_DIR TOKYO_R50_LONG TOKYO_R50_SHORT TOKYO_R30_DIR TOKYO_R30_LONG TOKYO_R30_SHORT TOKYO_LAND CMA_LAT CMA_LON CMA_CAT CMA_WIND CMA_PRES HKO_LAT HKO_LON HKO_CAT HKO_WIND HKO_PRES NEWDELHI_LAT NEWDELHI_LON NEWDELHI_GRADE NEWDELHI_WIND NEWDELHI_PRES NEWDELHI_CI NEWDELHI_DP NEWDELHI_POCI REUNION_LAT REUNION_LON REUNION_TYPE REUNION_WIND REUNION_PRES REUNION_TNUM REUNION_CI REUNION_RMW REUNION_R34_NE REUNION_R34_SE REUNION_R34_SW REUNION_R34_NW REUNION_R50_NE REUNION_R50_SE REUNION_R50_SW REUNION_R50_NW REUNION_R64_NE REUNION_R64_SE REUNION_R64_SW REUNION_R64_NW BOM_LAT BOM_LON BOM_TYPE BOM_WIND BOM_PRES BOM_TNUM BOM_CI BOM_RMW BOM_R34_NE BOM_R34_SE BOM_R34_SW BOM_R34_NW BOM_R50_NE BOM_R50_SE BOM_R50_SW BOM_R50_NW BOM_R64_NE BOM_R64_SE BOM_R64_SW BOM_R64_NW BOM_ROCI BOM_POCI BOM_EYE BOM_POS_METHOD BOM_PRES_METHOD NADI_LAT NADI_LON NADI_CAT NADI_WIND NADI_PRES WELLINGTON_LAT WELLINGTON_LON WELLINGTON_WIND WELLINGTON_PRES DS824_LAT DS824_LON DS824_STAGE DS824_WIND DS824_PRES TD9636_LAT TD9636_LON TD9636_STAGE TD9636_WIND TD9636_PRES TD9635_LAT TD9635_LON TD9635_WIND TD9635_PRES TD9635_ROCI NEUMANN_LAT NEUMANN_LON NEUMANN_CLASS NEUMANN_WIND NEUMANN_PRES MLC_LAT MLC_LON MLC_CLASS MLC_WIND MLC_PRES USA_GUST BOM_GUST BOM_GUST_PER REUNION_GUST REUNION_GUST_PER USA_SEAHGT USA_SEARAD_NE USA_SEARAD_SE USA_SEARAD_SW USA_SEARAD_NW STORM_SPEED STORM_DIR
2020055S15139 2020 10 SP EA ESTHER 2020-02-23 12:00:00 NR -15.1000 139.000 PROVISIONAL 185 144 O_____________ tcvitals SP192020 -15.1000 139.000 35 996 0 95 110 110 95 1003 215 50 11 166
2020055S15139 2020 10 SP EA ESTHER 2020-02-23 15:00:00 NR -15.6400 139.137 PROVISIONAL 144 90 P_____________ SP192020 -15.6400 139.137 37 995 0 95 112 82 77 1003 205 47 10 174
2020055S15139 2020 10 SP EA ESTHER 2020-02-23 18:00:00 NR -16.1000 139.100 PROVISIONAL 90 49 O_____________ tcvitals SP192020 -16.1000 139.100 39 995 0 95 115 55 60 1003 195 45 9 204
2020055S15139 2020 10 SP EA ESTHER 2020-02-23 21:00:00 NR -16.4176 138.775 PROVISIONAL 49 22 P_____________ SP192020 -16.4176 138.775 42 995 0 80 85 52 62 1004 187 37 9 237
2020055S15139 2020 10 SP EA ESTHER 2020-02-24 00:00:00 NR -16.6000 138.300 PROVISIONAL 22 0 O_____________ tcvitals SP192020 -16.6000 138.300 45 996 0 65 55 50 65 1005 180 30 9 253
2020055S15139 2020 10 SP EA ESTHER 2020-02-24 03:00:00 NR -16.6799 137.857 PROVISIONAL 0 0 P_____________ SP192020 -16.6799 137.857 48 994 0 87 72 60 70 1005 180 30 9 263
2020055S15139 2020 10 SP EA ESTHER 2020-02-24 06:00:00 NR -16.7000 137.400 PROVISIONAL 0 0 O_____________ tcvitals SP192020 -16.7000 137.400 51 992 0 110 90 70 75 1005 180 30 9 265
2020055S15139 2020 10 SP EA ESTHER 2020-02-24 09:00:00 NR -16.7577 136.875 PROVISIONAL 0 0 P_____________ SP192020 -16.7577 136.875 45 994 0 1005 180 30 9 263
2020055S15139 2020 10 SP EA ESTHER 2020-02-24 12:00:00 NR -16.8000 136.500 PROVISIONAL 0 0 O_____________ tcvitals SP192020 -16.8000 136.500 39 997 0 1005 180 30 3 262
2020055S15139 2020 10 SP EA ESTHER 2020-02-24 15:00:00 NR -16.8073 136.527 PROVISIONAL 0 0 P_____________ SP192020 -16.8073 136.527 34 998 0 1005 170 30 1 90
2020055S15139 2020 10 SP EA ESTHER 2020-02-24 18:00:00 NR -16.8000 136.600 PROVISIONAL 0 0 O_____________ tcvitals SP192020 -16.8000 136.600 29 1000 -1 1005 160 30 2 287
2020055S15139 2020 10 SP EA ESTHER 2020-02-24 21:00:00 NR -16.7551 136.352 PROVISIONAL 0 0 P_____________ SP192020 -16.7551 136.352 29 1000 -1 1005 155 30 6 270
2020055S15139 2020 10 SP EA ESTHER 2020-02-25 00:00:00 NR -16.8000 136.000 PROVISIONAL 0 0 O_____________ tcvitals SP192020 -16.8000 136.000 29 1000 -1 1005 150 30 7 238
2020055S15139 2020 10 SP EA ESTHER 2020-02-25 03:00:00 NR -17.1222 135.738 PROVISIONAL 0 0 P_____________ SP192020 -17.1222 135.738 29 999 -1 1004 205 30 8 224
2020055S15139 2020 10 SP EA ESTHER 2020-02-25 06:00:00 NR -17.4000 135.400 PROVISIONAL 0 0 O_____________ tcvitals SP192020 -17.4000 135.400 29 998 -1 1003 260 30 9 258
2020055S15139 2020 10 SI WA ESTHER 2020-02-25 09:00:00 NR -17.2953 134.857 PROVISIONAL 0 0 P_____________ SP192020 -17.2953 134.857 29 998 -1 1003 260 30 11 286
2020055S15139 2020 10 SI WA ESTHER 2020-02-25 12:00:00 NR -17.1000 134.300 PROVISIONAL 0 0 O_____________ tcvitals SP192020 -17.1000 134.300 29 999 -1 1003 260 30 10 280
2020055S15139 2020 10 SI WA ESTHER 2020-02-25 15:00:00 NR -17.1224 133.875 PROVISIONAL 0 0 P_____________ SP192020 -17.1224 133.875 29 998 -1 1003 247 30 7 270
2020055S15139 2020 10 SI WA ESTHER 2020-02-25 18:00:00 NR -17.1000 133.600 PROVISIONAL 0 0 O_____________ tcvitals SP192020 -17.1000 133.600 29 998 -1 1004 235 30 4 319
2020055S15139 2020 10 SI WA ESTHER 2020-02-25 21:00:00 NR -16.8071 133.588 PROVISIONAL 0 0 P_____________ SP192020 -16.8071 133.588 32 997 -1 1005 232 30 6 351
2020055S15139 2020 10 SI WA ESTHER 2020-02-26 00:00:00 NR -16.5000 133.500 PROVISIONAL 0 0 O_____________ tcvitals SP192020 -16.5000 133.500 35 997 0 40 45 45 40 1006 230 30 7 297
2020055S15139 2020 10 SI WA ESTHER 2020-02-26 03:00:00 NR -16.4807 132.915 PROVISIONAL 0 0 P_____________ SP192020 -16.4807 132.915 35 997 0 40 45 45 40 1004 220 30 12 275
2020055S15139 2020 10 SI WA ESTHER 2020-02-26 06:00:00 NR -16.4000 132.300 PROVISIONAL 0 0 O_____________ tcvitals SP192020 -16.4000 132.300 35 997 0 40 45 45 40 1002 210 30 10 308
2020055S15139 2020 10 SI WA ESTHER 2020-02-26 09:00:00 NR -15.8772 132.105 PROVISIONAL 0 0 P_____________ SP192020 -15.8772 132.105 35 996 0 1002 210 30 10 344
2020055S15139 2020 10 SI WA ESTHER 2020-02-26 12:00:00 NR -15.4000 132.000 PROVISIONAL 0 0 O_____________ tcvitals SP192020 -15.4000 132.000 35 996 0 1002 210 30 6 320
2020055S15139 2020 10 SI WA ESTHER 2020-02-26 15:00:00 NR -15.4325 131.723 PROVISIONAL 0 0 P_____________ SP192020 -15.4325 131.723 35 996 0 1003 215 30 6 251
2020055S15139 2020 10 SI WA ESTHER 2020-02-26 18:00:00 NR -15.6000 131.400 PROVISIONAL 0 0 O_____________ tcvitals SP192020 -15.6000 131.400 35 996 0 45 45 45 45 1004 220 30 6 256
2020055S15139 2020 10 SI WA ESTHER 2020-02-26 21:00:00 NR -15.5799 131.122 PROVISIONAL 0 0 P_____________ SP192020 -15.5799 131.122 35 996 0 45 45 45 45 1005 207 30 6 280
2020055S15139 2020 10 SI WA ESTHER 2020-02-27 00:00:00 NR -15.5000 130.800 PROVISIONAL 0 0 O_____________ tcvitals SP192020 -15.5000 130.800 35 996 0 45 45 45 45 1006 195 30 8 284
2020055S15139 2020 10 SI WA ESTHER 2020-02-27 03:00:00 NR -15.3928 130.320 PROVISIONAL 0 0 P_____________ SP192020 -15.3928 130.320 35 997 0 1006 195 30 9 283
2020055S15139 2020 10 SI WA ESTHER 2020-02-27 06:00:00 NR -15.3000 129.900 PROVISIONAL 0 0 O_____________ tcvitals SP192020 -15.3000 129.900 35 999 0 1006 195 30 5 281
2020055S15139 2020 10 SI WA ESTHER 2020-02-27 09:00:00 NR -15.2922 129.793 PROVISIONAL 0 0 P_____________ SP192020 -15.2922 129.793 35 999 0 1006 195 30 2 270
2020055S15139 2020 10 SI WA ESTHER 2020-02-27 12:00:00 NR -15.3000 129.700 PROVISIONAL 0 0 O_____________ tcvitals SP192020 -15.3000 129.700 35 999 0 1006 195 30 4 276
2020055S15139 2020 10 SI WA ESTHER 2020-02-27 15:00:00 NR -15.2427 129.330 PROVISIONAL 0 0 P_____________ SP192020 -15.2427 129.330 35 997 0 1005 195 30 8 277
2020055S15139 2020 10 SI WA ESTHER 2020-02-27 18:00:00 NR -15.2000 128.900 PROVISIONAL 0 0 O_____________ tcvitals SP192020 -15.2000 128.900 35 996 0 1004 195 30 7 271
2020055S15139 2020 10 SI WA ESTHER 2020-02-27 21:00:00 NR -15.2271 128.637 PROVISIONAL 0 0 P_____________ SP192020 -15.2271 128.637 35 996 0 1004 185 30 6 260
2020055S15139 2020 10 SI WA ESTHER 2020-02-28 00:00:00 NR -15.3000 128.300 PROVISIONAL 0 0 O_____________ tcvitals SP192020 -15.3000 128.300 35 996 0 1005 175 30 9 259
2020055S15139 2020 10 SI WA ESTHER 2020-02-28 03:00:00 NR -15.4004 127.680 PROVISIONAL 0 0 P_____________ SP192020 -15.4004 127.680 35 997 0 1005 175 30 13 261
2020055S15139 2020 10 SI WA ESTHER 2020-02-28 06:00:00 NR -15.5000 127.000 PROVISIONAL 0 0 O_____________ tcvitals SP192020 -15.5000 127.000 35 999 0 1005 175 30 12 262
2020055S15139 2020 10 SI WA ESTHER 2020-02-28 09:00:00 NR -15.5573 126.470 PROVISIONAL 0 0 P_____________ SP192020 -15.5573 126.470 35 999 0 1005 175 30 10 264
2020055S15139 2020 10 SI WA ESTHER 2020-02-28 12:00:00 NR -15.6000 126.000 PROVISIONAL 0 0 O_____________ tcvitals SP192020 -15.6000 126.000 35 999 0 1005 175 30 9 266
2020055S15139 2020 10 SI WA ESTHER 2020-02-28 15:00:00 NR -15.6246 125.531 PROVISIONAL 0 0 P_____________ SP192020 -15.6246 125.531 35 998 0 1004 180 30 9 263
2020055S15139 2020 10 SI WA ESTHER 2020-02-28 18:00:00 NR -15.7000 125.100 PROVISIONAL 0 0 O_____________ tcvitals SP192020 -15.7000 125.100 35 998 0 1004 185 30 8 252
2020055S15139 2020 10 SI WA ESTHER 2020-02-28 21:00:00 NR -15.8764 124.703 PROVISIONAL 0 0 P_____________ SP192020 -15.8764 124.703 33 997 -1 8 239
2020055S15139 2020 10 SI WA ESTHER 2020-02-29 00:00:00 NR -16.1373 124.357 PROVISIONAL 11 0 I_____________ tcvitals SP192020 -16.1373 124.357 32 997 -1 9 227
2020055S15139 2020 10 SI WA ESTHER 2020-02-29 03:00:00 NR -16.4489 124.053 PROVISIONAL 0 0 P_____________ SP192020 -16.4489 124.053 30 996 -1 9 219
2020055S15139 2020 10 SI WA ESTHER 2020-02-29 06:00:00 NR -16.8000 123.800 PROVISIONAL 0 0 O_____________ tcvitals SP192020 -16.8000 123.800 29 996 -1 1002 160 25 9 214
2020055S15139 2020 10 SI WA ESTHER 2020-02-29 09:00:00 NR -17.1547 123.551 PROVISIONAL 10 0 P_____________ SP192020 -17.1547 123.551 29 997 -1 1002 160 25 8 209
2020055S15139 2020 10 SI WA ESTHER 2020-02-29 12:00:00 NR -17.5000 123.400 PROVISIONAL 0 0 O_____________ tcvitals SP192020 -17.5000 123.400 29 998 -1 1002 160 25 7 192
2020055S15139 2020 10 SI WA ESTHER 2020-02-29 15:00:00 NR -17.8109 123.404 PROVISIONAL 0 0 P_____________ SP192020 -17.8109 123.404 29 998 -1 1002 160 25 6 171
2020055S15139 2020 10 SI WA ESTHER 2020-02-29 18:00:00 NR -18.1000 123.500 PROVISIONAL 0 O_____________ tcvitals SP192020 -18.1000 123.500 29 998 -1 1002 160 25 6 164

デジタル台風データ・検索

IBTrACS Databaseについて

本データベースは、米国NOAAが公開する1842年以降の世界の熱帯低気圧のベストトラックデータアーカイブInternational Best Track Archive for Climate Stewardship (IBTrACS)を、ウェブで閲覧しやすい形式に変換したものです。

最終更新日:2021-10-21